createdAt,value
2018-06-21T00:00:39.109Z,100277.17
2018-06-21T00:03:09.476Z,100272.42
2018-06-21T00:05:39.213Z,100269.66
2018-06-21T00:08:08.990Z,100263.06
2018-06-21T00:10:38.785Z,100268.90
2018-06-21T00:13:08.587Z,100260.20
2018-06-21T00:15:38.378Z,100258.75
2018-06-21T00:18:08.142Z,100256.76
2018-06-21T00:20:37.902Z,100256.80
2018-06-21T00:23:07.953Z,100248.93
2018-06-21T00:25:37.988Z,100253.39
2018-06-21T00:28:07.816Z,100250.39
2018-06-21T00:30:37.560Z,100251.64
2018-06-21T00:33:07.425Z,100244.13
2018-06-21T00:35:37.166Z,100244.75
2018-06-21T00:38:06.939Z,100242.27
2018-06-21T00:40:36.710Z,100236.41
2018-06-21T00:43:06.454Z,100235.71
2018-06-21T00:45:36.226Z,100234.64
2018-06-21T00:48:06.003Z,100230.50
2018-06-21T00:50:35.811Z,100234.23
2018-06-21T00:53:05.597Z,100229.89
2018-06-21T00:55:45.962Z,100228.61
2018-06-21T00:58:15.720Z,100228.08
2018-06-21T01:00:45.501Z,100224.87
2018-06-21T01:03:15.275Z,100224.09
2018-06-21T01:05:45.030Z,100218.84
2018-06-21T01:08:14.797Z,100223.32
2018-06-21T01:10:44.559Z,100220.52
2018-06-21T01:13:14.334Z,100218.50
2018-06-21T01:15:44.417Z,100217.05
2018-06-21T01:18:14.178Z,100209.70
2018-06-21T01:20:43.914Z,100206.94
2018-06-21T01:23:13.720Z,100194.64
2018-06-21T01:25:43.497Z,100206.33
2018-06-21T01:28:13.290Z,100203.47
2018-06-21T01:30:43.068Z,100202.42
2018-06-21T01:33:12.989Z,100201.92
2018-06-21T01:35:42.739Z,100197.03
2018-06-21T01:38:12.593Z,100199.73
2018-06-21T01:40:42.377Z,100198.08
2018-06-21T01:43:12.153Z,100190.13
2018-06-21T01:45:41.957Z,100191.47
2018-06-21T01:48:11.750Z,100184.97
2018-06-21T01:50:41.511Z,100187.05
2018-06-21T01:53:11.597Z,100180.75
2018-06-21T01:55:41.374Z,100177.45
2018-06-21T01:58:11.216Z,100176.00
2018-06-21T02:00:40.984Z,100175.94
2018-06-21T02:03:10.746Z,100166.41
2018-06-21T02:05:40.545Z,100167.14
2018-06-21T02:08:10.342Z,100165.72
2018-06-21T02:10:40.276Z,100162.63
2018-06-21T02:13:10.035Z,100160.56
2018-06-21T02:15:39.831Z,100154.19
2018-06-21T02:18:09.561Z,100150.35
2018-06-21T02:20:39.333Z,100152.44
2018-06-21T02:23:09.113Z,100146.88
2018-06-21T02:25:38.862Z,100149.48
2018-06-21T02:28:08.630Z,100149.62
2018-06-21T02:30:38.369Z,100145.70
2018-06-21T02:33:08.158Z,100138.56
2018-06-21T02:35:37.909Z,100143.26
2018-06-21T02:38:07.656Z,100120.84
2018-06-21T02:40:37.475Z,100129.41
2018-06-21T02:43:07.969Z,100130.09
2018-06-21T02:45:37.813Z,100123.72
2018-06-21T02:48:07.643Z,100123.18
2018-06-21T02:50:37.442Z,100129.22
2018-06-21T02:53:07.540Z,100129.10
2018-06-21T02:55:37.405Z,100122.42
2018-06-21T02:58:07.157Z,100120.66
2018-06-21T03:00:36.926Z,100114.86
2018-06-21T03:03:06.714Z,100121.70
2018-06-21T03:05:36.473Z,100119.35
2018-06-21T03:08:06.286Z,100116.81
2018-06-21T03:10:36.042Z,100112.47
2018-06-21T03:13:05.786Z,100106.25
2018-06-21T03:15:35.575Z,100106.37
2018-06-21T03:18:05.333Z,100109.78
2018-06-21T03:20:35.213Z,100107.09
2018-06-21T03:23:04.977Z,100094.27
2018-06-21T03:25:34.718Z,100104.17
2018-06-21T03:28:04.521Z,100093.54
2018-06-21T03:30:34.273Z,100090.43
2018-06-21T03:33:04.037Z,100090.55
2018-06-21T03:35:33.798Z,100088.38
2018-06-21T03:38:03.549Z,100080.94
2018-06-21T03:40:33.336Z,100080.13
2018-06-21T03:43:03.085Z,100076.09
2018-06-21T03:45:32.853Z,100075.48
2018-06-21T03:48:02.604Z,100074.03
2018-06-21T03:50:32.391Z,100071.56
2018-06-21T03:53:02.126Z,100061.13
2018-06-21T03:55:31.952Z,100064.00
2018-06-21T03:58:01.743Z,100066.58
2018-06-21T04:00:31.533Z,100056.39
2018-06-21T04:03:01.286Z,100054.91
2018-06-21T04:05:31.089Z,100059.45
2018-06-21T04:08:00.868Z,100044.47
2018-06-21T04:10:30.605Z,100060.06
2018-06-21T04:13:00.482Z,100052.19
2018-06-21T04:15:30.227Z,100056.45
2018-06-21T04:18:00.002Z,100052.92
2018-06-21T04:20:29.798Z,100050.30
2018-06-21T04:22:59.548Z,100054.56
2018-06-21T04:25:29.313Z,100048.65
2018-06-21T04:27:59.099Z,100051.30
2018-06-21T04:30:28.916Z,100049.89
2018-06-21T04:32:58.648Z,100056.84
2018-06-21T04:35:28.422Z,100055.86
2018-06-21T04:37:58.239Z,100051.28
2018-06-21T04:40:28.207Z,100047.13
2018-06-21T04:42:57.957Z,100046.12
2018-06-21T04:45:27.695Z,100047.01
2018-06-21T04:47:57.534Z,100039.78
2018-06-21T04:50:27.321Z,100035.81
2018-06-21T04:52:57.098Z,100038.30
2018-06-21T04:55:26.885Z,100034.44
2018-06-21T04:57:56.634Z,100036.56
2018-06-21T05:00:26.442Z,100034.20
2018-06-21T05:02:56.180Z,100037.20
2018-06-21T05:05:25.935Z,100027.78
2018-06-21T05:07:55.738Z,100029.77
2018-06-21T05:10:25.529Z,100022.31
2018-06-21T05:12:55.318Z,100021.59
2018-06-21T05:15:25.063Z,100020.64
2018-06-21T05:17:54.820Z,100013.69
2018-06-21T05:20:24.612Z,100008.34
2018-06-21T05:22:54.355Z,100006.55
2018-06-21T05:25:24.158Z,100002.30
2018-06-21T05:27:53.897Z,100005.81
2018-06-21T05:30:23.673Z,99995.13
2018-06-21T05:32:53.411Z,99995.86
2018-06-21T05:35:23.190Z,99992.63
2018-06-21T05:37:52.928Z,99990.45
2018-06-21T05:40:31.335Z,99989.69
2018-06-21T05:43:01.905Z,99989.93
2018-06-21T05:45:31.992Z,99989.02
2018-06-21T05:48:03.011Z,99985.23
2018-06-21T05:50:34.047Z,99982.48
2018-06-21T05:53:03.969Z,99978.05
2018-06-21T05:55:34.675Z,99972.13
2018-06-21T05:58:04.470Z,99966.91
2018-06-21T06:00:34.313Z,99965.20
2018-06-21T06:03:04.127Z,99960.69
2018-06-21T06:05:33.985Z,99948.27
2018-06-21T06:08:03.897Z,99951.52
2018-06-21T06:10:33.704Z,99946.86
2018-06-21T06:13:03.552Z,99945.23
2018-06-21T06:15:33.361Z,99948.17
2018-06-21T06:18:03.185Z,99938.03
2018-06-21T06:20:32.958Z,99933.55
2018-06-21T06:23:02.740Z,99936.94
2018-06-21T06:25:32.527Z,99931.77
2018-06-21T06:28:02.333Z,99932.50
2018-06-21T06:30:32.153Z,99927.47
2018-06-21T06:33:02.030Z,99921.42
2018-06-21T06:35:32.326Z,99923.72
2018-06-21T06:38:02.400Z,99913.00
2018-06-21T06:40:32.370Z,99915.06
2018-06-21T06:43:02.359Z,99909.54
2018-06-21T06:45:32.325Z,99905.14
2018-06-21T06:48:02.530Z,99896.11
2018-06-21T06:50:32.527Z,99897.37
2018-06-21T06:53:02.381Z,99888.08
2018-06-21T06:55:32.274Z,99888.21
2018-06-21T06:58:02.234Z,99872.14
2018-06-21T07:00:32.054Z,99883.39
2018-06-21T07:03:01.916Z,99868.80
2018-06-21T07:05:31.746Z,99877.34
2018-06-21T07:08:01.566Z,99868.52
2018-06-21T07:10:31.377Z,99868.14
2018-06-21T07:13:01.221Z,99856.56
2018-06-21T07:15:30.989Z,99852.05
2018-06-21T07:18:00.712Z,99852.42
2018-06-21T07:20:30.696Z,99841.35
2018-06-21T07:23:00.688Z,99838.22
2018-06-21T07:25:30.642Z,99834.73
2018-06-21T07:28:00.755Z,99829.45
2018-06-21T07:30:30.601Z,99825.42
2018-06-21T07:33:00.801Z,99823.83
2018-06-21T07:35:30.648Z,99816.83
2018-06-21T07:38:00.833Z,99806.03
2018-06-21T07:40:30.943Z,99807.70
2018-06-21T07:43:00.738Z,99807.73
2018-06-21T07:45:30.561Z,99807.23
2018-06-21T07:48:00.809Z,99805.05
2018-06-21T07:50:30.692Z,99790.12
2018-06-21T07:53:00.559Z,99802.37
2018-06-21T07:55:30.379Z,99793.39
2018-06-21T07:58:00.296Z,99788.75
2018-06-21T08:00:30.127Z,99778.39
2018-06-21T08:03:00.059Z,99784.64
2018-06-21T08:05:29.901Z,99794.19
2018-06-21T08:07:59.860Z,99768.30
2018-06-21T08:10:29.715Z,99767.72
2018-06-21T08:13:00.780Z,99760.90
2018-06-21T08:15:31.189Z,99758.41
2018-06-21T08:18:01.130Z,99760.80
2018-06-21T08:20:31.010Z,99750.41
2018-06-21T08:23:00.846Z,99746.55
2018-06-21T08:25:30.634Z,99747.59
2018-06-21T08:28:00.550Z,99742.97
2018-06-21T08:30:30.365Z,99736.41
2018-06-21T08:33:00.229Z,99738.55
2018-06-21T08:35:30.078Z,99740.41
2018-06-21T08:37:59.964Z,99732.80
2018-06-21T08:40:29.833Z,99743.27
2018-06-21T08:42:59.709Z,99723.34
2018-06-21T08:45:29.558Z,99724.84
2018-06-21T08:47:59.424Z,99730.72
2018-06-21T08:50:29.290Z,99719.52
2018-06-21T08:52:59.177Z,99707.16
2018-06-21T08:55:29.050Z,99705.34
2018-06-21T08:57:58.869Z,99703.89
2018-06-21T09:00:29.189Z,99714.65
2018-06-21T09:02:59.021Z,99706.40
2018-06-21T09:05:28.858Z,99698.25
2018-06-21T09:07:58.742Z,99701.52
2018-06-21T09:10:28.581Z,99695.44
2018-06-21T09:12:58.429Z,99697.33
2018-06-21T09:15:28.340Z,99687.20
2018-06-21T09:17:58.394Z,99681.28
2018-06-21T09:20:28.210Z,99676.44
2018-06-21T09:22:58.501Z,99686.05
2018-06-21T09:25:28.302Z,99680.06
2018-06-21T09:27:58.418Z,99669.98
2018-06-21T09:30:28.393Z,99670.78
2018-06-21T09:32:58.259Z,99660.69
2018-06-21T09:35:28.052Z,99658.80
2018-06-21T09:38:02.801Z,99660.48
2018-06-21T09:40:37.602Z,99654.50
2018-06-21T09:43:12.471Z,99649.76
2018-06-21T09:46:51.225Z,99641.26
2018-06-21T09:49:21.145Z,99630.77
2018-06-21T09:51:50.940Z,99637.98
2018-06-21T09:54:20.778Z,99633.55
2018-06-21T09:56:50.672Z,99634.24
2018-06-21T09:59:20.514Z,99622.89
2018-06-21T10:01:50.392Z,99615.97
2018-06-21T10:04:20.368Z,99633.97
2018-06-21T10:06:50.236Z,99606.67
2018-06-21T10:09:20.120Z,99601.08
2018-06-21T10:11:50.008Z,99598.02
2018-06-21T10:14:19.893Z,99597.16
2018-06-21T10:16:49.770Z,99592.80
2018-06-21T10:19:19.658Z,99577.69
2018-06-21T10:21:49.634Z,99583.02
2018-06-21T10:24:19.569Z,99566.61
2018-06-21T10:26:49.417Z,99559.56
2018-06-21T10:29:19.347Z,99560.86
2018-06-21T10:31:49.632Z,99550.39
2018-06-21T10:34:19.581Z,99544.55
2018-06-21T10:36:49.420Z,99544.12
2018-06-21T10:39:19.296Z,99542.27
2018-06-21T10:41:49.163Z,99531.55
2018-06-21T10:44:18.987Z,99530.75
2018-06-21T10:46:48.880Z,99531.69
2018-06-21T10:49:18.736Z,99522.03
2018-06-21T10:51:48.686Z,99512.14
2018-06-21T10:54:18.534Z,99507.95
2018-06-21T10:56:48.637Z,99534.27
2018-06-21T10:59:18.428Z,99510.27
2018-06-21T11:01:48.358Z,99504.03
2018-06-21T11:04:18.169Z,99495.71
2018-06-21T11:06:48.190Z,99493.84
2018-06-21T11:09:18.010Z,99498.70
2018-06-21T11:11:47.808Z,99487.66
2018-06-21T11:14:17.661Z,99486.21
2018-06-21T11:16:47.628Z,99478.66
2018-06-21T11:19:17.855Z,99487.59
2018-06-21T11:21:47.690Z,99472.73
2018-06-21T11:24:17.581Z,99469.12
2018-06-21T11:26:47.449Z,99469.56
2018-06-21T11:29:17.356Z,99478.93
2018-06-21T11:31:47.224Z,99468.37
2018-06-21T11:34:17.013Z,99462.16
2018-06-21T11:36:47.042Z,99447.58
2018-06-21T11:39:16.933Z,99459.34
2018-06-21T11:41:46.834Z,99447.06
2018-06-21T11:44:16.673Z,99462.16
2018-06-21T11:46:46.623Z,99439.31
2018-06-21T11:49:16.656Z,99440.06
2018-06-21T11:51:46.566Z,99444.72
2018-06-21T11:54:17.289Z,99436.97
2018-06-21T11:56:47.156Z,99421.73
2018-06-21T11:59:17.021Z,99427.47
2018-06-21T12:01:46.957Z,99419.66
2018-06-21T12:04:17.094Z,99415.39
2018-06-21T12:06:46.916Z,99413.83
2018-06-21T12:09:16.800Z,99407.56
2018-06-21T12:11:46.634Z,99416.03
2018-06-21T12:14:16.857Z,99414.02
2018-06-21T12:16:46.686Z,99406.70
2018-06-21T12:19:16.559Z,99395.72
2018-06-21T12:21:46.380Z,99399.80
2018-06-21T12:24:16.233Z,99389.74
2018-06-21T12:26:46.118Z,99382.23
2018-06-21T12:29:15.990Z,99391.20
2018-06-21T12:31:45.956Z,99380.12
2018-06-21T12:34:15.820Z,99391.22
2018-06-21T12:36:45.767Z,99380.23
2018-06-21T12:39:15.606Z,99373.30
2018-06-21T12:41:45.489Z,99363.80
2018-06-21T12:44:15.362Z,99362.08
2018-06-21T12:46:45.242Z,99357.95
2018-06-21T12:49:15.157Z,99363.83
2018-06-21T12:51:45.482Z,99345.33
2018-06-21T12:54:15.308Z,99350.91
2018-06-21T12:56:45.124Z,99326.47
2018-06-21T12:59:15.564Z,99312.91
2018-06-21T13:01:45.412Z,99323.16
2018-06-21T13:04:15.295Z,99308.38
2018-06-21T13:06:45.134Z,99326.41
2018-06-21T13:09:25.529Z,99321.95
2018-06-21T13:12:35.193Z,99325.60
2018-06-21T13:15:05.739Z,99321.39
2018-06-21T13:17:35.594Z,99318.18
2018-06-21T13:20:06.313Z,99304.25
2018-06-21T13:22:36.155Z,99298.09
2018-06-21T13:25:06.294Z,99283.87
2018-06-21T13:27:36.138Z,99283.05
2018-06-21T13:30:07.790Z,99276.59
2018-06-21T13:32:37.635Z,99260.34
2018-06-21T13:35:07.868Z,99264.38
2018-06-21T13:37:37.817Z,99259.73
2018-06-21T13:40:07.873Z,99247.34
2018-06-21T13:42:37.777Z,99234.66
2018-06-21T13:45:08.176Z,99232.33
2018-06-21T13:47:38.041Z,99220.08
2018-06-21T13:50:07.917Z,99216.97
2018-06-21T13:52:38.138Z,99211.34
2018-06-21T13:55:08.020Z,99210.41
2018-06-21T13:57:37.998Z,99220.24
2018-06-21T14:00:08.247Z,99216.45
2018-06-21T14:02:38.150Z,99229.72
2018-06-21T14:05:08.013Z,99279.80
2018-06-21T14:07:37.981Z,99366.95
2018-06-21T14:24:50.436Z,99349.13
2018-06-21T14:27:20.329Z,99334.19
2018-06-21T14:29:50.226Z,99339.50
2018-06-21T14:32:20.534Z,99339.48
2018-06-21T14:34:50.387Z,99341.82
2018-06-21T14:37:20.312Z,99323.44
2018-06-21T14:39:51.004Z,99319.41
2018-06-21T14:42:21.293Z,99351.48
2018-06-21T14:44:51.862Z,99370.52
2018-06-21T14:47:23.686Z,99335.54
2018-06-21T14:49:53.650Z,99327.14
2018-06-21T14:52:28.344Z,99314.34
2018-06-21T14:54:58.292Z,99315.14
2018-06-21T14:57:28.504Z,99322.76
2018-06-21T14:59:59.506Z,99330.89
2018-06-21T15:02:29.471Z,99315.40
2018-06-21T15:04:59.783Z,99326.01
2018-06-21T15:07:30.368Z,99358.33
2018-06-21T15:10:00.326Z,99386.05
2018-06-21T15:12:30.448Z,99439.30
2018-06-21T15:15:00.601Z,99467.23
2018-06-21T15:17:30.648Z,99469.55
2018-06-21T15:20:00.487Z,99468.88
2018-06-21T15:22:30.431Z,99486.27
2018-06-21T15:25:01.525Z,99489.92
2018-06-21T15:27:31.677Z,99503.95
2018-06-21T15:30:01.549Z,99518.25
2018-06-21T15:32:31.456Z,99511.80
2018-06-21T15:35:01.406Z,99510.10
2018-06-21T15:37:31.282Z,99516.23
2018-06-21T15:40:01.342Z,99513.12
2018-06-21T15:42:31.728Z,99519.61
2018-06-21T15:45:01.543Z,99535.21
2018-06-21T15:47:31.454Z,99558.30
2018-06-21T15:50:03.256Z,99599.66
2018-06-21T15:52:33.304Z,99609.98
2018-06-21T15:55:03.232Z,99621.34
2018-06-21T15:57:33.405Z,99620.16
2018-06-21T16:00:03.407Z,99644.78
2018-06-21T16:02:33.450Z,99648.33
2018-06-21T16:05:03.512Z,99669.38
2018-06-21T16:07:33.577Z,99661.38
2018-06-21T16:10:03.523Z,99680.08
2018-06-21T16:12:33.661Z,99668.88
2018-06-21T16:15:04.226Z,99668.60
2018-06-21T16:17:34.170Z,99678.02
2018-06-21T16:20:04.461Z,99699.78
2018-06-21T16:22:34.390Z,99717.94
2018-06-21T16:25:04.607Z,99741.77
2018-06-21T16:27:34.434Z,99734.58
2018-06-21T16:30:04.792Z,99746.84
2018-06-21T16:32:34.622Z,99770.27
2018-06-21T16:35:04.641Z,99787.11
2018-06-21T16:37:34.755Z,99797.98
2018-06-21T16:40:04.750Z,99796.55
2018-06-21T16:42:34.659Z,99801.03
2018-06-21T16:45:04.722Z,99817.04
2018-06-21T16:47:34.553Z,99807.86
2018-06-21T16:50:04.804Z,99821.34
2018-06-21T16:52:42.315Z,99835.63
2018-06-21T16:55:12.456Z,99840.24
2018-06-21T16:57:42.593Z,99842.94
2018-06-21T17:00:12.341Z,99846.53
2018-06-21T17:02:42.405Z,99847.87
2018-06-21T17:05:12.322Z,99856.61
2018-06-21T17:07:42.552Z,99861.45
2018-06-21T17:10:12.394Z,99873.85
2018-06-21T17:12:42.253Z,99868.36
2018-06-21T17:15:12.049Z,99865.55
2018-06-21T17:17:42.231Z,99863.87
2018-06-21T17:20:12.154Z,99879.61
2018-06-21T17:22:42.037Z,99890.73
2018-06-21T17:25:14.170Z,99899.93
2018-06-21T17:27:44.115Z,99895.84
2018-06-21T17:30:14.177Z,99902.25
2018-06-21T17:32:44.547Z,99892.98
2018-06-21T17:35:14.792Z,99897.50
2018-06-21T17:37:44.903Z,99896.70
2018-06-21T17:40:14.717Z,99913.20
2018-06-21T17:42:44.943Z,99909.75
2018-06-21T17:45:14.772Z,99912.47
2018-06-21T17:47:47.523Z,99924.23
2018-06-21T17:50:18.077Z,99922.59
2018-06-21T17:52:48.440Z,99932.81
2018-06-21T17:55:18.327Z,99942.10
2018-06-21T17:57:53.604Z,99916.09
2018-06-21T18:00:24.723Z,99932.80
2018-06-21T18:02:56.753Z,99933.55
2018-06-21T18:05:31.137Z,99936.03
2018-06-21T18:08:01.145Z,99938.72
2018-06-21T18:10:31.237Z,99950.89
2018-06-21T18:13:01.257Z,99956.05
2018-06-21T18:15:31.127Z,99960.77
2018-06-21T18:18:01.575Z,99961.45
2018-06-21T18:20:31.466Z,99967.45
2018-06-21T18:23:01.469Z,99972.16
2018-06-21T18:25:32.089Z,99986.41
2018-06-21T18:28:03.393Z,99987.74
2018-06-21T18:30:33.494Z,99992.27
2018-06-21T18:33:04.786Z,100002.36
2018-06-21T18:35:34.910Z,100001.58
2018-06-21T18:38:09.895Z,100007.59
2018-06-21T18:40:39.997Z,100013.89
2018-06-21T18:43:10.141Z,100019.34
2018-06-21T18:45:40.109Z,100022.38
2018-06-21T18:48:10.100Z,100026.22
2018-06-21T18:50:40.304Z,100028.20
2018-06-21T18:53:10.466Z,100028.60
2018-06-21T18:55:40.889Z,100043.26
2018-06-21T18:58:10.753Z,100044.13
2018-06-21T19:00:56.987Z,100050.61
2018-06-21T19:03:27.301Z,100044.02
2018-06-21T19:05:57.113Z,100046.08
2018-06-21T19:08:31.741Z,100042.33
2018-06-21T19:11:06.434Z,100040.73
2018-06-21T19:13:40.207Z,100043.03
2018-06-21T19:16:10.149Z,100036.50
2018-06-21T19:18:40.241Z,100040.93
2018-06-21T19:21:10.382Z,100040.97
2018-06-21T19:23:40.166Z,100052.89
2018-06-21T19:26:10.102Z,100061.67
2018-06-21T19:28:40.173Z,100070.15
2018-06-21T19:31:10.375Z,100071.20
2018-06-21T19:33:41.940Z,100073.48
2018-06-21T19:36:11.837Z,100059.05
2018-06-21T19:38:41.598Z,100062.39
2018-06-21T19:41:11.575Z,100078.36
2018-06-21T19:43:41.383Z,100092.48
2018-06-21T19:46:11.522Z,100095.23
2018-06-21T19:48:41.518Z,100086.44
2018-06-21T19:51:11.395Z,100096.16
2018-06-21T19:53:41.289Z,100101.78
2018-06-21T19:56:11.129Z,100107.05
2018-06-21T19:58:47.882Z,100092.81
2018-06-21T20:01:17.825Z,100098.29
2018-06-21T20:03:47.825Z,100106.72
2018-06-21T20:06:17.678Z,100104.06
2018-06-21T20:08:47.551Z,100108.92
2018-06-21T20:11:22.172Z,100110.88
2018-06-21T20:13:53.145Z,100105.80
2018-06-21T20:16:23.215Z,100102.73
2018-06-21T20:18:53.225Z,100107.25
2018-06-21T20:21:23.178Z,100115.59
2018-06-21T20:23:53.385Z,100111.13
2018-06-21T20:26:23.213Z,100118.92
2018-06-21T20:28:53.259Z,100118.87
2018-06-21T20:31:23.566Z,100126.02
2018-06-21T20:33:53.438Z,100120.92
2018-06-21T20:36:26.418Z,100123.52
2018-06-21T20:38:56.235Z,100121.91
2018-06-21T20:41:26.264Z,100122.47
2018-06-21T20:43:56.353Z,100126.80
2018-06-21T20:46:26.417Z,100120.11
2018-06-21T20:48:56.223Z,100118.77
2018-06-21T20:51:26.621Z,100113.88
2018-06-21T20:53:56.749Z,100124.05
2018-06-21T20:56:26.525Z,100120.38
2018-06-21T20:58:56.919Z,100114.28
2018-06-21T21:01:26.997Z,100119.25
2018-06-21T21:03:57.122Z,100126.28
2018-06-21T21:06:26.901Z,100114.94
2018-06-21T21:08:56.763Z,100120.62
2018-06-21T21:11:26.519Z,100115.22
2018-06-21T21:13:56.310Z,100114.58
2018-06-21T21:16:26.117Z,100118.72
2018-06-21T21:18:55.921Z,100114.81
2018-06-21T21:21:25.707Z,100126.80
2018-06-21T21:23:55.514Z,100125.20
2018-06-21T21:26:26.033Z,100131.39
2018-06-21T21:28:56.743Z,100134.64
2018-06-21T21:31:29.264Z,100123.78
2018-06-21T21:33:59.241Z,100117.02
2018-06-21T21:36:29.996Z,100118.42
2018-06-21T21:39:00.717Z,100117.45
2018-06-21T21:41:32.102Z,100118.95
2018-06-21T21:44:02.850Z,100130.55
2018-06-21T21:46:35.893Z,100120.30
2018-06-21T21:49:05.704Z,100128.74
2018-06-21T21:51:36.184Z,100129.96
2018-06-21T21:54:06.914Z,100124.41
2018-06-21T21:56:37.778Z,100121.63
2018-06-21T21:59:09.094Z,100127.14
2018-06-21T22:01:39.917Z,100112.27
2018-06-21T22:04:10.780Z,100126.42
2018-06-21T22:06:42.160Z,100121.73
2018-06-21T22:09:12.942Z,100130.50
2018-06-21T22:11:43.862Z,100136.97
2018-06-21T22:14:15.094Z,100140.82
2018-06-21T22:16:46.234Z,100142.42
2018-06-21T22:19:16.943Z,100152.73
2018-06-21T22:21:48.295Z,100153.63
2018-06-21T22:24:19.015Z,100152.41
2018-06-21T22:26:49.777Z,100156.30
2018-06-21T22:29:21.121Z,100166.88
2018-06-21T22:31:52.658Z,100172.52
2018-06-21T22:34:29.730Z,100171.44
2018-06-21T22:36:59.610Z,100174.11
2018-06-21T22:39:29.466Z,100171.92
2018-06-21T22:44:42.926Z,100176.56
2018-06-21T22:47:12.840Z,100178.34
2018-06-21T22:49:43.202Z,100176.95
2018-06-21T22:52:13.042Z,100174.09
2018-06-21T22:54:43.248Z,100182.72
2018-06-21T22:57:13.126Z,100196.00
2018-06-21T22:59:43.016Z,100193.13
2018-06-21T23:02:12.856Z,100195.75
2018-06-21T23:04:42.827Z,100191.97
2018-06-21T23:07:12.719Z,100199.62
2018-06-21T23:09:42.570Z,100208.65
2018-06-21T23:12:12.598Z,100203.08
2018-06-21T23:14:42.566Z,100212.58
2018-06-21T23:17:12.911Z,100220.81
2018-06-21T23:19:42.843Z,100223.77
2018-06-21T23:22:12.850Z,100217.73
2018-06-21T23:24:43.228Z,100220.03
2018-06-21T23:27:14.126Z,100226.16
2018-06-21T23:29:45.012Z,100224.59
2018-06-21T23:32:16.022Z,100226.45
2018-06-21T23:34:46.818Z,100238.32
2018-06-21T23:37:18.258Z,100235.69
2018-06-21T23:39:49.046Z,100246.58
2018-06-21T23:42:19.920Z,100243.50
2018-06-21T23:44:51.199Z,100247.30
2018-06-21T23:47:22.066Z,100242.61
2018-06-21T23:49:52.845Z,100255.52
2018-06-21T23:52:24.164Z,100250.95
2018-06-21T23:54:55.026Z,100251.27
2018-06-21T23:57:26.072Z,100250.13
2018-06-21T23:59:56.890Z,100252.92
